Algonquin, IL (60102)

5:02 AM CST on January 23, 2017 (GMT -0600)
Glenmoor Subdivision | | Change Station
Active Advisory: Marine Fog Advisory

Elev 865 ft 42.17 °N, 88.26 °W | Updated 2 seconds ago

Overcast
Overcast
33.7 °F
Feels Like 30 °F
N
3.7
Wind Variable Wind from North
Gusts 4.3 mph

Today
High -- | Low -- °F
--% Chance of Precip.
Yesterday
High -- | Low -- °F
Precip. -- in
Pressure 29.73 in
Visibility 10.0 miles
Clouds Overcast 800 ft
Windchill 30 °F
Dew Point 34 °F
Humidity 100%
Rainfall 0.00 in
Snow Depth Not available.
7:14 AM 4:56 PM
Waning Crescent, 19% visible
METAR KDPA 231052Z 35010KT 10SM OVC008 03/01 A2972 RMK AO2 SLP068 T00330011
Pressure 29.73 in
Visibility 10.0 miles
Clouds Overcast 800 ft
Windchill 30 °F
Dew Point 34 °F
Humidity 100%
Rainfall 0.00 in
Snow Depth Not available.
7:14 AM 4:56 PM
Waning Crescent, 19% visible
METAR KDPA 231052Z 35010KT 10SM OVC008 03/01 A2972 RMK AO2 SLP068 T00330011

Get Your Daily Forecast Email!

Thanks for signing up!

Be on the lookout for a verification email in your inbox.

You'll start receiving the daily forecast at 8 AM.

×

10-Day Weather Forecast

Almanac

Astronomy

Jan. 23, 2017 Rise Set
Actual Time
Civil Twilight
Nautical Twilight
Astronomical Twilight
Moon
Length of Visible Light
Length of Day
Tomorrow will be .
, % of the Moon is Illuminated

Today's Extremes

State Highs State Lows

Community

WunderPhotos

Upload Photos

1,962,540 photos uploaded!

WunderBlog® & News

Nearby

Air Quality

  Air Quality AQ Index Pollutant
Not available.

Snow Depth

Station Depth Elevation

Earthquake Activity

City Distance Mag. Time & Date
Minimum magnitude displayed is 2.5.

Coastal Water Temperatures

Place Temperature

Stations

Nearby Weather Stations

Station Location Temp. Windchill Dew Point Humidity Wind Precip. Elev Updated Type
                   

Watches & Warnings

Marine Fog Advisory
Issued: 3:12 AM CST Jan. 23, 2017 – National Weather Service

... Dense fog advisory remains in effect until 9 am CST this
morning...

* visibility... less than one half mile.

Precautionary/preparedness actions...

A dense fog advisory means visibilities will frequently be
reduced to less than one mile. Inexperienced mariners...
especially those operating smaller vessels should avoid
navigating in these conditions.



Mtf